Time;durP1;ratioP1;P1;durP2;ratioP2;P2;SDS_P1;SDS_P2;PMS_P1;PMS_P2;Temp;Humidity;BMP_temperature;BMP_pressure;BME280_temperature;BME280_humidity;BME280_pressure;Samples;Min_cycle;Max_cycle;Signal;HPM_P1;HPM_P2
2022/09/28 00:01:22;;;;;;;0.30;0.30;;;;;;;12.67;62.78;97925.12;4453764;32;33861;-71
2022/09/28 00:03:53;;;;;;;0.35;0.35;;;;;;;12.29;64.67;97922.31;4441132;32;34703;-71
2022/09/28 00:06:25;;;;;;;0.40;0.40;;;;;;;12.63;62.79;97917.47;4453890;32;33516;-71
2022/09/28 00:08:53;;;;;;;0.30;0.30;;;;;;;12.58;63.09;97916.81;4453982;32;33537;-71
2022/09/28 00:11:22;;;;;;;0.30;0.30;;;;;;;12.29;64.07;97919.69;4453879;32;33856;-71
2022/09/28 00:13:52;;;;;;;0.90;0.90;;;;;;;12.47;62.87;97901.59;4453801;32;34995;-71
2022/09/28 00:16:24;;;;;;;0.28;0.28;;;;;;;12.61;62.92;97906.25;4453861;32;34450;-72
2022/09/28 00:18:52;;;;;;;0.43;0.43;;;;;;;12.76;62.07;97902.12;4454939;32;33426;-72
2022/09/28 00:21:23;;;;;;;0.30;0.30;;;;;;;12.63;62.22;97901.78;4455015;32;33850;-72
2022/09/28 00:26:42;;;;;;;0.30;0.30;;;;;;;12.60;62.30;97908.00;4453934;32;35295;-72
2022/09/28 00:29:27;;;;;;;0.40;0.40;;;;;;;12.64;61.79;97914.78;4453756;32;33717;-71
2022/09/28 00:32:01;;;;;;;0.37;0.37;;;;;;;12.39;62.44;97909.75;4441127;32;33306;-71
2022/09/28 00:34:33;;;;;;;0.30;0.30;;;;;;;12.58;62.66;97904.59;4453734;32;36034;-71
2022/09/28 00:37:03;;;;;;;0.40;0.40;;;;;;;12.56;62.33;97911.66;4453757;32;35081;-71
2022/09/28 00:39:31;;;;;;;0.35;0.35;;;;;;;12.56;62.07;97903.81;4453784;32;34297;-72
2022/09/28 00:41:58;;;;;;;0.30;0.30;;;;;;;12.58;61.21;97916.81;4453666;32;34062;-71
2022/09/28 00:44:53;;;;;;;0.32;0.32;;;;;;;12.43;61.27;97915.69;4454718;32;35140;-71
2022/09/28 00:47:36;;;;;;;0.50;0.50;;;;;;;12.65;61.34;97921.72;4451442;32;34958;-72
2022/09/28 00:50:28;;;;;;;0.30;0.30;;;;;;;12.74;60.91;97920.50;4453546;32;33756;-72
2022/09/28 00:52:59;;;;;;;0.28;0.28;;;;;;;12.69;61.15;97910.22;4453677;32;33958;-72
2022/09/28 00:55:41;;;;;;;0.30;0.30;;;;;;;12.88;61.07;97899.84;4453626;32;35090;-71
2022/09/28 00:58:11;;;;;;;0.30;0.30;;;;;;;12.74;61.58;97917.00;4454748;32;34414;-72
2022/09/28 01:00:40;;;;;;;0.30;0.30;;;;;;;12.79;61.48;97917.66;4454665;32;33331;-72
2022/09/28 01:03:09;;;;;;;1.17;0.93;;;;;;;12.76;61.19;97912.56;4454699;32;33907;-72
2022/09/28 01:05:38;;;;;;;0.30;0.30;;;;;;;12.88;60.51;97914.66;4453473;32;35045;-72
2022/09/28 01:08:07;;;;;;;0.30;0.30;;;;;;;12.80;61.24;97908.94;4453880;32;34445;-72
2022/09/28 01:10:35;;;;;;;0.30;0.30;;;;;;;12.76;61.00;97918.66;4453529;32;34307;-72
2022/09/28 01:13:03;;;;;;;0.40;0.40;;;;;;;13.04;60.44;97918.31;4452896;32;33919;-72
2022/09/28 01:15:36;;;;;;;0.40;0.40;;;;;;;12.82;60.98;97914.94;4453300;32;35925;-72
2022/09/28 01:18:04;;;;;;;0.40;0.40;;;;;;;12.85;61.04;97920.03;4453571;32;34551;-72
2022/09/28 01:20:44;;;;;;;0.40;0.40;;;;;;;12.92;60.58;97920.59;4454752;32;34237;-72
2022/09/28 01:23:38;;;;;;;0.30;0.30;;;;;;;12.94;60.67;97918.78;4454785;32;33910;-72
2022/09/28 01:26:24;;;;;;;0.30;0.30;;;;;;;12.88;60.83;97918.13;4454344;32;35927;-72
2022/09/28 01:28:58;;;;;;;0.25;0.25;;;;;;;12.96;60.53;97920.41;4454499;32;34481;-72
2022/09/28 01:31:29;;;;;;;0.30;0.30;;;;;;;12.86;60.55;97930.38;4453569;32;34100;-72
2022/09/28 01:34:04;;;;;;;0.45;0.45;;;;;;;12.88;60.61;97927.72;4440626;32;34731;-72
2022/09/28 01:36:40;;;;;;;0.30;0.30;;;;;;;12.89;60.17;97918.97;4453216;32;35038;-72
2022/09/28 01:39:14;;;;;;;0.30;0.30;;;;;;;12.56;61.07;97942.97;4453177;32;35300;-72
2022/09/28 01:41:44;;;;;;;0.30;0.30;;;;;;;12.38;61.66;97938.53;4453224;32;33328;-71
2022/09/28 01:44:15;;;;;;;0.37;0.37;;;;;;;12.70;60.83;97935.41;4453062;32;33067;-72
2022/09/28 01:46:46;;;;;;;0.30;0.30;;;;;;;12.78;60.83;97947.34;4453025;32;35089;-72
2022/09/28 01:49:30;;;;;;;0.40;0.40;;;;;;;12.59;61.09;97950.69;4452855;32;35197;-72
2022/09/28 01:52:10;;;;;;;0.30;0.30;;;;;;;12.59;61.32;97950.69;4453035;32;34181;-71
2022/09/28 01:54:53;;;;;;;0.60;0.60;;;;;;;12.56;61.26;97935.16;4453184;32;34715;-72
2022/09/28 01:57:44;;;;;;;0.40;0.40;;;;;;;12.55;61.17;97940.44;4453963;32;34999;-72
2022/09/28 02:00:14;;;;;;;0.30;0.30;;;;;;;12.56;61.51;97942.13;4446104;32;35162;-72
2022/09/28 02:02:58;;;;;;;0.50;0.50;;;;;;;12.55;61.25;97946.53;4453172;32;32250;-72
2022/09/28 02:05:31;;;;;;;0.30;0.30;;;;;;;12.77;60.43;97945.63;4452964;32;34018;-72
2022/09/28 02:08:19;;;;;;;0.30;0.30;;;;;;;12.63;61.15;97941.81;4452780;32;35911;-71
2022/09/28 02:10:59;;;;;;;0.40;0.40;;;;;;;12.41;60.98;97946.25;4453812;32;34484;-72
2022/09/28 02:13:30;;;;;;;0.40;0.40;;;;;;;12.63;60.46;97943.59;4453913;32;33649;-72
2022/09/28 02:16:10;;;;;;;0.30;0.30;;;;;;;12.45;60.85;97946.03;4453734;32;34898;-72
2022/09/28 02:18:39;;;;;;;0.30;0.30;;;;;;;12.50;60.66;97938.88;4453709;32;34942;-72
2022/09/28 02:21:16;;;;;;;0.30;0.30;;;;;;;12.68;60.25;97932.03;4453920;32;34406;-72
2022/09/28 02:23:53;;;;;;;0.30;0.30;;;;;;;12.62;59.93;97936.69;4452556;32;33526;-72
2022/09/28 02:26:26;;;;;;;0.22;0.22;;;;;;;12.62;59.41;97937.50;4454795;32;34037;-72
2022/09/28 02:28:54;;;;;;;7.97;0.95;;;;;;;12.45;60.26;97935.59;4455091;32;35831;-72
2022/09/28 02:31:22;;;;;;;0.30;0.30;;;;;;;12.52;59.92;97936.19;4456029;32;35375;-72
2022/09/28 02:33:51;;;;;;;0.47;0.47;;;;;;;12.50;60.93;97938.03;4455951;32;33382;-72
2022/09/28 02:36:19;;;;;;;0.30;0.30;;;;;;;12.85;59.64;97944.38;4454700;32;33885;-72
2022/09/28 02:38:47;;;;;;;0.40;0.40;;;;;;;12.83;59.77;97942.72;4455922;32;34985;-71
2022/09/28 02:41:38;;;;;;;0.30;0.30;;;;;;;12.63;60.03;97941.81;4454680;32;33940;-72
2022/09/28 02:44:31;;;;;;;0.30;0.30;;;;;;;12.84;59.38;97936.59;4455978;32;34319;-72
2022/09/28 02:47:08;;;;;;;0.30;0.30;;;;;;;12.82;59.43;97936.66;4455524;32;33844;-72
2022/09/28 02:49:54;;;;;;;0.25;0.25;;;;;;;12.84;59.43;97941.84;4454460;32;34922;-72
2022/09/28 02:52:40;;;;;;;0.30;0.30;;;;;;;12.88;59.10;97948.63;4454423;32;34411;-72
2022/09/28 02:55:41;;;;;;;0.50;0.50;;;;;;;12.84;58.78;97952.28;4455889;32;34377;-71
2022/09/28 02:58:29;;;;;;;0.30;0.30;;;;;;;13.01;58.40;97954.19;4421281;32;34714;-72
2022/09/28 03:01:16;;;;;;;0.30;0.30;;;;;;;13.00;58.25;97957.69;4455542;32;34994;-72
2022/09/28 03:04:11;;;;;;;0.30;0.30;;;;;;;12.80;59.24;97958.56;4455812;32;35100;-72
2022/09/28 03:06:47;;;;;;;0.30;0.30;;;;;;;13.01;58.09;97972.47;4452673;32;33973;-72
2022/09/28 03:09:20;;;;;;;0.30;0.30;;;;;;;12.81;58.93;97983.75;4454657;32;34819;-72
2022/09/28 03:11:51;;;;;;;0.65;0.65;;;;;;;12.84;59.23;97983.63;4454397;32;35762;-72
2022/09/28 03:14:19;;;;;;;0.30;0.30;;;;;;;12.84;59.37;97989.69;4455906;32;34456;-72
2022/09/28 03:16:48;;;;;;;0.30;0.30;;;;;;;12.98;58.76;97980.44;4454492;32;34255;-72
2022/09/28 03:19:21;;;;;;;0.30;0.30;;;;;;;12.82;59.08;97991.53;4454311;32;34007;-72
2022/09/28 03:21:50;;;;;;;0.30;0.30;;;;;;;12.87;58.86;98000.03;4455660;32;35115;-72
2022/09/28 03:24:18;;;;;;;0.30;0.30;;;;;;;13.27;57.88;97987.00;4455590;32;35124;-72
2022/09/28 03:26:45;;;;;;;0.30;0.30;;;;;;;13.35;57.81;97995.41;4455239;32;33262;-72
2022/09/28 03:29:13;;;;;;;0.30;0.30;;;;;;;13.31;58.32;97995.59;4455563;32;34189;-72
2022/09/28 03:31:43;;;;;;;0.30;0.30;;;;;;;13.10;59.14;97990.38;4455559;32;35739;-72
2022/09/28 03:34:11;;;;;;;0.40;0.40;;;;;;;13.11;59.04;97985.97;4454351;32;33752;-72
2022/09/28 03:36:39;;;;;;;0.30;0.30;;;;;;;13.09;59.27;97992.16;4454810;32;33451;-72
2022/09/28 03:39:06;;;;;;;0.60;0.60;;;;;;;12.98;58.81;97988.28;4455294;32;33927;-72
2022/09/28 03:41:37;;;;;;;0.30;0.30;;;;;;;12.88;59.15;97985.19;4455458;32;35975;-72
2022/09/28 03:44:05;;;;;;;0.30;0.30;;;;;;;13.04;58.93;97988.87;4455419;32;34487;-72
2022/09/28 03:46:32;;;;;;;0.30;0.30;;;;;;;13.16;58.15;97997.94;4455472;32;34085;-72
2022/09/28 03:49:01;;;;;;;0.22;0.22;;;;;;;12.96;58.97;98003.19;4455311;32;33831;-72
2022/09/28 03:51:29;;;;;;;0.40;0.40;;;;;;;12.99;58.99;98001.28;4454981;32;35840;-72
2022/09/28 03:53:56;;;;;;;0.30;0.30;;;;;;;12.85;59.93;98001.84;4455156;32;34539;-72
2022/09/28 03:56:25;;;;;;;0.40;0.40;;;;;;;12.60;60.50;97996.78;4441351;32;32257;-72
2022/09/28 03:58:53;;;;;;;0.22;0.22;;;;;;;12.82;59.93;97995.91;4455131;32;33970;-72
2022/09/28 04:01:21;;;;;;;0.30;0.30;;;;;;;12.69;60.42;97993.81;4455027;32;35066;-71
2022/09/28 04:03:53;;;;;;;0.30;0.30;;;;;;;12.73;60.32;97991.06;4455029;32;35166;-72
2022/09/28 04:06:23;;;;;;;0.50;0.50;;;;;;;12.72;60.40;97984.97;4454097;32;34215;-71
2022/09/28 04:08:51;;;;;;;0.40;0.40;;;;;;;12.66;60.77;97986.09;4441227;32;32371;-72
2022/09/28 04:11:19;;;;;;;0.40;0.40;;;;;;;12.20;62.01;97980.09;4455107;32;35745;-72
2022/09/28 04:13:48;;;;;;;0.32;0.32;;;;;;;12.58;61.14;97982.94;4453874;32;35316;-72
2022/09/28 04:16:17;;;;;;;0.30;0.30;;;;;;;12.52;61.26;97978.81;4441159;32;32029;-72
2022/09/28 04:18:47;;;;;;;0.40;0.40;;;;;;;12.41;61.67;97977.56;4455031;32;34865;-72
2022/09/28 04:21:18;;;;;;;0.40;0.40;;;;;;;12.58;61.28;97985.53;4454942;32;34950;-72
2022/09/28 04:23:47;;;;;;;0.30;0.30;;;;;;;12.51;61.16;97976.25;4454142;32;33659;-72
2022/09/28 04:26:17;;;;;;;0.43;0.43;;;;;;;12.47;61.19;97972.09;4453967;32;33389;-72
2022/09/28 04:31:52;;;;;;;0.40;0.40;;;;;;;12.48;61.15;97965.97;4454217;32;35171;-72
2022/09/28 04:34:22;;;;;;;0.40;0.40;;;;;;;12.47;61.35;97969.47;4454134;32;34470;-73
2022/09/28 04:36:50;;;;;;;0.50;0.50;;;;;;;12.20;61.90;97974.03;4454840;32;33463;-72
2022/09/28 04:39:18;;;;;;;0.30;0.30;;;;;;;12.17;62.46;97988.03;4455080;32;33451;-72
2022/09/28 04:41:47;;;;;;;9.32;2.17;;;;;;;12.45;61.32;97989.56;4454086;32;35076;-72
2022/09/28 04:44:15;;;;;;;0.40;0.40;;;;;;;12.23;62.00;97986.94;4448519;32;166998;-72
2022/09/28 04:46:44;;;;;;;0.75;0.57;;;;;;;12.20;62.08;97990.53;4454135;32;33488;-72
2022/09/28 04:49:14;;;;;;;0.35;0.35;;;;;;;12.57;61.11;97988.25;4454895;32;33920;-72
2022/09/28 04:51:42;;;;;;;0.30;0.30;;;;;;;12.24;62.45;97988.66;4454682;32;35906;-72
2022/09/28 04:54:11;;;;;;;0.30;0.30;;;;;;;12.26;62.26;97979.84;4454951;32;35223;-72
2022/09/28 04:56:40;;;;;;;0.40;0.40;;;;;;;11.80;64.04;97971.16;4453748;32;33331;-72
2022/09/28 04:59:08;;;;;;;0.40;0.40;;;;;;;11.86;64.04;97978.78;4454702;32;34835;-72
2022/09/28 05:01:36;;;;;;;0.35;0.35;;;;;;;11.62;64.92;97979.69;4453566;32;35075;-72
2022/09/28 05:04:05;;;;;;;0.40;0.40;;;;;;;11.46;65.78;97982.00;4455053;32;34871;-72
2022/09/28 05:06:33;;;;;;;0.30;0.30;;;;;;;11.73;64.79;97987.94;4454863;32;33248;-72
2022/09/28 05:09:01;;;;;;;0.40;0.40;;;;;;;11.66;64.58;97991.69;4454785;32;33903;-72
2022/09/28 05:11:29;;;;;;;0.40;0.40;;;;;;;11.65;64.38;97988.25;4450991;32;34999;-71
2022/09/28 05:13:57;;;;;;;0.30;0.30;;;;;;;11.56;64.63;97997.25;4452835;32;32867;-71
2022/09/28 05:16:28;;;;;;;0.30;0.30;;;;;;;11.41;65.66;97997.78;4454700;32;34159;-71
2022/09/28 05:19:10;;;;;;;0.37;0.37;;;;;;;11.51;65.10;97999.16;4453321;32;33818;-71
2022/09/28 05:21:45;;;;;;;0.30;0.30;;;;;;;11.79;63.94;98000.78;4454304;32;35147;-71
2022/09/28 05:24:13;;;;;;;0.30;0.30;;;;;;;11.93;63.18;98003.75;4453093;32;34565;-77
2022/09/28 05:26:42;;;;;;;0.40;0.40;;;;;;;11.82;63.50;98002.41;4453350;32;33529;-76
2022/09/28 05:29:10;;;;;;;0.50;0.50;;;;;;;12.51;63.11;98000.62;4454380;32;33633;-71
2022/09/28 05:31:40;;;;;;;0.30;0.30;;;;;;;14.46;57.31;98003.44;4453360;32;35183;-71
2022/09/28 05:34:08;;;;;;;0.20;0.20;;;;;;;16.54;50.55;97997.09;4454377;32;34447;-72
2022/09/28 05:36:38;;;;;;;0.30;0.30;;;;;;;17.15;48.16;98000.59;4454400;32;34626;-77
2022/09/28 05:39:08;;;;;;;0.30;0.30;;;;;;;17.63;46.69;97993.34;4454250;32;33130;-72
2022/09/28 05:41:36;;;;;;;0.28;0.28;;;;;;;17.67;47.55;97997.47;4454496;32;35063;-73
2022/09/28 05:44:04;;;;;;;0.40;0.40;;;;;;;18.07;46.57;97997.69;4454087;32;34288;-74
2022/09/28 05:46:33;;;;;;;0.30;0.30;;;;;;;17.76;46.18;98006.59;4454242;32;33791;-72
2022/09/28 05:49:02;;;;;;;0.30;0.30;;;;;;;17.57;46.75;97999.81;4454120;32;34821;-82
2022/09/28 05:51:30;;;;;;;0.30;0.30;;;;;;;17.48;46.76;97992.47;4452494;32;34252;-84
2022/09/28 05:53:58;;;;;;;0.30;0.30;;;;;;;17.58;47.17;97995.41;4454090;32;34442;-84
2022/09/28 05:56:32;;;;;;;0.40;0.40;;;;;;;17.52;47.02;97988.72;4440991;32;33557;-72
2022/09/28 05:59:04;;;;;;;0.30;0.30;;;;;;;17.24;47.72;97993.03;4454898;32;33335;-73
2022/09/28 06:01:31;;;;;;;0.40;0.40;;;;;;;17.31;47.98;97997.91;4455748;32;35020;-71
2022/09/28 06:04:00;;;;;;;0.37;0.37;;;;;;;16.98;49.31;98004.25;4456068;32;35101;-72
2022/09/28 06:06:27;;;;;;;0.30;0.30;;;;;;;17.12;49.80;98000.78;4455844;32;33734;-72
2022/09/28 06:08:55;;;;;;;0.20;0.20;;;;;;;17.63;47.44;98001.25;4454578;32;34023;-72
2022/09/28 06:11:26;;;;;;;0.30;0.30;;;;;;;17.17;48.51;98002.22;4454425;32;35014;-82
2022/09/28 06:13:54;;;;;;;0.20;0.20;;;;;;;17.55;48.25;97996.44;4455955;32;34162;-79
2022/09/28 06:16:23;;;;;;;0.30;0.30;;;;;;;17.53;46.92;98003.56;4455900;32;34363;-73
2022/09/28 06:18:51;;;;;;;0.30;0.30;;;;;;;17.81;47.08;97999.25;4454586;32;34572;-74
2022/09/28 06:21:19;;;;;;;0.35;0.35;;;;;;;17.75;47.63;98003.13;4455876;32;35146;-80
2022/09/28 06:23:47;;;;;;;0.35;0.35;;;;;;;17.52;48.06;97993.12;4455554;32;35269;-73
2022/09/28 06:26:16;;;;;;;0.30;0.30;;;;;;;17.44;48.17;98001.50;4455822;32;33670;-72
2022/09/28 06:28:44;;;;;;;0.40;0.40;;;;;;;18.08;45.57;98001.16;4454417;32;34659;-77
2022/09/28 06:31:12;;;;;;;0.40;0.40;;;;;;;17.53;47.11;98002.75;4454211;32;35863;-73
2022/09/28 06:33:41;;;;;;;0.30;0.30;;;;;;;17.18;50.42;98003.91;4455919;32;35343;-73
2022/09/28 06:36:09;;;;;;;0.20;0.20;;;;;;;17.18;51.45;98003.91;4455864;32;33564;-75
2022/09/28 06:38:37;;;;;;;0.30;0.30;;;;;;;17.11;51.02;98007.81;4455543;32;34759;-81
2022/09/28 06:41:05;;;;;;;0.40;0.40;;;;;;;16.96;49.24;98012.22;4455597;32;35935;-70
2022/09/28 06:43:33;;;;;;;0.30;0.30;;;;;;;17.12;48.71;98009.53;4455823;32;34528;-76
2022/09/28 06:46:08;;;;;;;0.75;0.57;;;;;;;17.48;49.16;98010.91;4454650;32;34299;-70
2022/09/28 06:48:36;;;;;;;0.30;0.30;;;;;;;17.78;47.79;98010.81;4454184;32;34030;-87
2022/09/28 06:51:05;;;;;;;0.30;0.30;;;;;;;17.57;48.77;98015.59;4455327;32;35009;-80
2022/09/28 06:53:35;;;;;;;0.30;0.30;;;;;;;17.46;47.57;98015.41;4441884;32;34163;-80
2022/09/28 06:56:08;;;;;;;0.52;0.52;;;;;;;17.80;48.51;98013.34;4454490;32;34246;-87
2022/09/28 06:58:36;;;;;;;1.83;1.37;;;;;;;17.59;45.74;98015.50;4454186;32;33961;-73
2022/09/28 07:01:04;;;;;;;0.52;0.52;;;;;;;18.13;47.15;98014.88;4454078;32;35984;-77
2022/09/28 07:03:33;;;;;;;0.30;0.30;;;;;;;18.45;46.53;98009.34;4441958;32;34412;-73
2022/09/28 07:06:03;;;;;;;0.30;0.30;;;;;;;18.81;45.47;98007.88;4455652;32;33488;-73
2022/09/28 07:08:31;;;;;;;0.30;0.30;;;;;;;18.53;44.96;98010.53;4455337;32;33997;-84
2022/09/28 07:11:04;;;;;;;0.30;0.30;;;;;;;19.28;45.95;98011.81;4453801;32;35049;-88
2022/09/28 07:13:33;;;;;;;0.30;0.30;;;;;;;19.29;45.66;98016.16;4454235;32;34447;-87
2022/09/28 07:16:18;;;;;;;0.20;0.20;;;;;;;19.35;46.50;98013.09;4453598;32;33645;-82
2022/09/28 07:18:53;;;;;;;1.77;1.48;;;;;;;19.20;45.51;98009.72;4455554;32;33938;-83
2022/09/28 07:21:21;;;;;;;0.20;0.20;;;;;;;19.22;47.39;98004.31;4455257;32;35055;-84
2022/09/28 07:23:58;;;;;;;0.40;0.40;;;;;;;19.79;46.55;98006.56;4454291;32;34513;-84
2022/09/28 07:26:32;;;;;;;0.22;0.22;;;;;;;19.61;44.81;98006.03;4455407;32;31891;-82
2022/09/28 07:29:00;;;;;;;0.20;0.20;;;;;;;20.43;43.28;98008.22;4454310;32;33418;-76
2022/09/28 07:31:28;;;;;;;0.10;0.10;;;;;;;19.94;44.72;98003.81;4441640;32;34326;-81
2022/09/28 07:33:57;;;;;;;0.25;0.25;;;;;;;19.58;45.64;97997.47;4454037;32;34418;-81
2022/09/28 07:36:25;;;;;;;0.20;0.20;;;;;;;20.31;42.27;98001.19;4454284;32;33554;-80
2022/09/28 07:38:54;;;;;;;0.20;0.20;;;;;;;19.60;44.69;97995.56;4454085;32;32683;-82
2022/09/28 07:41:31;;;;;;;0.62;0.62;;;;;;;19.70;46.67;98001.91;4455165;32;35117;-74
2022/09/28 07:44:04;;;;;;;0.28;0.28;;;;;;;19.29;44.84;98003.81;4455215;32;34427;-79
2022/09/28 07:46:38;;;;;;;0.30;0.30;;;;;;;19.57;44.97;98001.94;4455255;32;33510;-76
2022/09/28 07:49:06;;;;;;;0.40;0.40;;;;;;;19.47;47.70;98006.16;4453975;32;33430;-79
2022/09/28 07:51:43;;;;;;;2.25;1.23;;;;;;;19.66;45.91;98011.00;4455163;32;34621;-71
2022/09/28 07:54:11;;;;;;;0.30;0.30;;;;;;;19.32;46.61;98013.28;4455313;32;34444;-74
2022/09/28 07:56:39;;;;;;;0.28;0.28;;;;;;;19.28;48.14;98015.28;4454966;32;34395;-83
2022/09/28 07:59:07;;;;;;;2.35;0.57;;;;;;;19.70;44.16;98017.75;4454787;32;33696;-75
2022/09/28 08:01:39;;;;;;;0.30;0.30;;;;;;;19.08;46.16;98027.19;4455001;32;35057;-81
2022/09/28 08:04:08;;;;;;;0.25;0.25;;;;;;;18.67;47.10;98022.84;4455147;32;34276;-76
2022/09/28 08:06:36;;;;;;;0.32;0.32;;;;;;;18.81;47.92;98023.72;4455207;32;33696;-71
2022/09/28 08:09:04;;;;;;;0.22;0.22;;;;;;;19.14;45.86;98018.03;4454837;32;33926;-73
2022/09/28 08:11:33;;;;;;;0.20;0.20;;;;;;;19.74;47.20;98010.50;4454678;32;35196;-72
2022/09/28 08:14:02;;;;;;;0.80;0.80;;;;;;;19.89;44.76;97999.69;4454788;32;34579;-73
2022/09/28 08:16:33;;;;;;;0.30;0.30;;;;;;;19.74;45.31;97998.13;4455212;32;33473;-73
2022/09/28 08:19:03;;;;;;;0.30;0.30;;;;;;;20.23;46.63;97989.37;4453618;32;33403;-72
2022/09/28 08:21:46;;;;;;;0.10;0.10;;;;;;;20.89;45.37;97983.69;4453522;32;35930;-86
2022/09/28 08:24:16;;;;;;;0.30;0.30;;;;;;;20.62;44.15;97974.22;4454772;32;35294;-84
2022/09/28 08:26:44;;;;;;;0.25;0.25;;;;;;;19.50;46.55;97974.22;4453784;32;33151;-88
2022/09/28 08:29:14;;;;;;;0.30;0.30;;;;;;;19.02;46.79;97974.84;4453738;32;34697;-84
2022/09/28 08:31:47;;;;;;;0.75;0.73;;;;;;;19.81;46.58;97983.53;4454864;32;35063;-75
2022/09/28 08:34:17;;;;;;;0.88;0.68;;;;;;;20.33;46.40;97991.34;4453634;32;34461;-90
2022/09/28 08:36:47;;;;;;;0.15;0.15;;;;;;;20.29;46.10;97997.81;4454000;32;32651;-85
2022/09/28 08:39:17;;;;;;;0.60;0.60;;;;;;;20.50;44.43;98008.62;4454971;32;33526;-84
2022/09/28 08:42:02;;;;;;;0.20;0.20;;;;;;;19.69;46.05;97997.56;4454607;32;35896;-86
2022/09/28 08:44:38;;;;;;;0.30;0.30;;;;;;;19.75;46.65;97991.91;4454930;32;35090;-85
2022/09/28 08:50:18;;;;;;;0.37;0.30;;;;;;;19.91;46.61;98002.25;4454737;32;34183;-70
2022/09/28 08:52:53;;;;;;;0.22;0.22;;;;;;;19.45;45.85;98014.16;4453828;32;34917;-69
2022/09/28 08:55:31;;;;;;;0.20;0.20;;;;;;;18.74;48.66;97997.75;4453534;32;35182;-71
2022/09/28 08:58:15;;;;;;;0.20;0.20;;;;;;;19.14;47.93;97995.13;4453469;32;33544;-70
2022/09/28 09:00:48;;;;;;;0.30;0.30;;;;;;;19.62;48.47;97996.31;4453624;32;34864;-70
2022/09/28 09:03:24;;;;;;;0.40;0.40;;;;;;;20.12;46.22;97991.06;4453414;32;36169;-70
2022/09/28 09:05:59;;;;;;;0.20;0.20;;;;;;;20.14;46.02;97984.75;4454674;32;34558;-71
2022/09/28 09:08:56;;;;;;;0.30;0.30;;;;;;;20.59;45.52;97992.09;4441164;32;31983;-70
2022/09/28 09:11:33;;;;;;;0.30;0.30;;;;;;;20.29;44.67;97995.16;4454468;32;34800;-71
2022/09/28 09:14:24;;;;;;;0.30;0.30;;;;;;;20.25;44.88;97987.44;4454670;32;34739;-71
2022/09/28 09:17:17;;;;;;;0.37;0.37;;;;;;;19.81;46.56;97983.53;4444885;32;34258;-77
2022/09/28 09:19:51;;;;;;;0.40;0.40;;;;;;;19.38;46.76;97981.22;4454165;32;33540;-70
2022/09/28 09:22:52;;;;;;;0.55;0.55;;;;;;;19.16;46.35;97981.81;4454329;32;35203;-71
2022/09/28 09:25:27;;;;;;;0.20;0.20;;;;;;;18.84;48.12;97979.56;4433657;32;35772;-69
2022/09/28 09:28:20;;;;;;;0.20;0.20;;;;;;;18.74;48.51;97979.28;4453255;32;33436;-71
2022/09/28 09:30:56;;;;;;;0.40;0.40;;;;;;;18.87;48.81;97978.53;4454323;32;33440;-72
2022/09/28 09:33:53;;;;;;;0.50;0.50;;;;;;;19.02;48.61;97974.84;4452637;32;34098;-70
2022/09/28 09:36:37;;;;;;;0.30;0.30;;;;;;;18.89;48.23;97971.34;4440888;32;34222;-77
2022/09/28 09:39:15;;;;;;;0.20;0.20;;;;;;;19.09;50.62;97970.81;4454419;32;35253;-82
2022/09/28 09:42:07;;;;;;;0.20;0.20;;;;;;;18.11;51.72;97978.09;4454417;32;33459;-80
2022/09/28 09:45:00;;;;;;;0.30;0.30;;;;;;;18.51;51.40;97980.81;4453285;32;34018;-72
2022/09/28 09:47:37;;;;;;;1.15;1.10;;;;;;;19.12;51.08;97981.19;4454348;32;35157;-84
2022/09/28 09:50:18;;;;;;;0.30;0.30;;;;;;;19.17;50.49;97977.41;4452531;32;35099;-72
2022/09/28 09:52:54;;;;;;;1.05;0.95;;;;;;;18.44;50.76;97973.37;4453194;32;34405;-84
2022/09/28 09:55:44;;;;;;;0.30;0.30;;;;;;;19.12;50.07;97978.53;4452861;32;33626;-71
2022/09/28 09:58:36;;;;;;;0.20;0.20;;;;;;;19.63;49.01;97975.06;4452979;32;34973;-80
2022/09/28 10:01:11;;;;;;;0.30;0.30;;;;;;;19.39;49.10;97969.69;4453025;32;35234;-85
2022/09/28 10:03:43;;;;;;;0.20;0.20;;;;;;;18.95;50.12;97968.28;4452914;32;34241;-85
2022/09/28 10:06:21;;;;;;;0.30;0.30;;;;;;;17.96;51.12;97977.25;4453000;32;33787;-78
2022/09/28 10:09:00;;;;;;;0.25;0.25;;;;;;;17.87;52.40;97991.00;4452748;32;35211;-84
2022/09/28 10:11:34;;;;;;;0.47;0.47;;;;;;;17.85;53.62;97977.06;4452698;32;34348;-83
2022/09/28 10:14:07;;;;;;;0.30;0.30;;;;;;;17.21;54.17;97993.19;4452930;32;33510;-72
2022/09/28 10:16:35;;;;;;;1.05;0.50;;;;;;;16.99;54.83;97983.09;4452409;32;32981;-82
2022/09/28 10:19:07;;;;;;;0.20;0.20;;;;;;;18.00;55.26;97993.75;4452272;32;34750;-85
2022/09/28 10:21:41;;;;;;;1.58;0.93;;;;;;;18.51;52.57;97986.09;4453792;32;33091;-84
2022/09/28 10:24:29;;;;;;;0.43;0.43;;;;;;;19.31;51.88;97988.72;4452425;32;33460;-84
2022/09/28 10:27:06;;;;;;;0.70;0.65;;;;;;;18.66;51.76;97978.09;4453556;32;33736;-82
2022/09/28 10:30:03;;;;;;;0.30;0.30;;;;;;;19.25;49.33;97986.50;4453444;32;35158;-79
2022/09/28 10:32:45;;;;;;;0.20;0.20;;;;;;;19.44;50.91;97985.22;4439632;32;33770;-83
2022/09/28 10:35:17;;;;;;;0.25;0.25;;;;;;;18.82;51.81;97985.88;4452277;32;33427;-82
2022/09/28 10:37:53;;;;;;;0.30;0.30;;;;;;;18.88;51.28;97988.09;4453451;32;34730;-74
2022/09/28 10:40:28;;;;;;;0.45;0.45;;;;;;;18.44;50.21;97978.66;4452451;32;34969;-75
2022/09/28 10:43:22;;;;;;;0.37;0.37;;;;;;;17.99;53.03;97984.13;4451979;32;32679;-72
2022/09/28 10:46:08;;;;;;;0.32;0.32;;;;;;;19.12;50.39;97975.91;4454161;32;34571;-72
2022/09/28 10:48:57;;;;;;;0.30;0.30;;;;;;;19.38;49.70;97981.22;4455714;32;33916;-80
2022/09/28 10:51:48;;;;;;;0.30;0.30;;;;;;;18.55;50.68;97974.37;4454334;32;35442;-86
2022/09/28 10:54:17;;;;;;;0.25;0.25;;;;;;;17.43;52.58;97982.22;4455715;32;35153;-75
2022/09/28 10:56:46;;;;;;;0.22;0.22;;;;;;;18.19;52.80;97977.59;4455597;32;33369;-79
2022/09/28 10:59:28;;;;;;;0.60;0.60;;;;;;;18.29;51.57;97975.22;4454255;32;32410;-83
2022/09/28 11:02:03;;;;;;;0.30;0.30;;;;;;;18.70;50.20;97975.16;4455543;32;36036;-71
2022/09/28 11:04:42;;;;;;;0.20;0.20;;;;;;;18.22;51.69;97969.50;4454239;32;34647;-74
2022/09/28 11:07:23;;;;;;;0.20;0.20;;;;;;;19.22;49.08;97967.34;4454193;32;33427;-71
2022/09/28 11:09:53;;;;;;;0.35;0.30;;;;;;;20.42;46.29;97954.50;4454250;32;34729;-70
2022/09/28 11:12:25;;;;;;;0.32;0.32;;;;;;;20.46;44.77;97950.69;4455365;32;35154;-69
2022/09/28 11:15:16;;;;;;;0.30;0.30;;;;;;;21.00;44.66;97952.00;4441504;32;34026;-70
2022/09/28 11:17:45;;;;;;;0.40;0.40;;;;;;;20.81;43.99;97946.41;4454162;32;32760;-71
2022/09/28 11:20:25;;;;;;;0.20;0.20;;;;;;;20.66;45.81;97937.81;4454165;32;33891;-71
2022/09/28 11:23:14;;;;;;;0.30;0.30;;;;;;;20.63;43.99;97938.88;4455481;32;35972;-71
2022/09/28 11:25:42;;;;;;;0.30;0.30;;;;;;;20.82;44.46;97935.72;4455387;32;33953;-74
2022/09/28 11:28:22;;;;;;;0.80;0.35;;;;;;;20.04;46.53;97933.50;4454375;32;34239;-76
2022/09/28 11:30:51;;;;;;;0.20;0.20;;;;;;;19.70;47.05;97944.66;4454053;32;34148;-82
2022/09/28 11:33:29;;;;;;;0.15;0.15;;;;;;;19.37;48.64;97933.81;4455258;32;35132;-72
2022/09/28 11:36:17;;;;;;;0.50;0.50;;;;;;;18.81;48.79;97939.31;4454010;32;34518;-73
2022/09/28 11:39:07;;;;;;;0.62;0.60;;;;;;;19.56;47.80;97936.00;4454163;32;32840;-77
2022/09/28 11:42:04;;;;;;;0.20;0.20;;;;;;;20.02;45.65;97938.06;4454447;32;34557;-75
2022/09/28 11:44:58;;;;;;;0.30;0.30;;;;;;;19.86;45.57;97936.50;4455343;32;35511;-80
2022/09/28 11:47:46;;;;;;;0.30;0.30;;;;;;;19.24;48.61;97933.81;4447231;32;35316;-72
2022/09/28 11:50:38;;;;;;;0.30;0.30;;;;;;;19.29;48.36;97935.19;4454108;32;34265;-71
2022/09/28 11:53:17;;;;;;;0.57;0.57;;;;;;;19.89;46.82;97930.19;4446107;32;34834;-72
2022/09/28 11:55:48;;;;;;;0.28;0.28;;;;;;;18.82;47.86;97930.50;4441303;32;35335;-72
2022/09/28 11:58:22;;;;;;;2.20;1.10;;;;;;;18.51;50.11;97927.22;4454102;32;33702;-72
2022/09/28 12:00:57;;;;;;;0.20;0.20;;;;;;;18.69;51.14;97918.09;4455570;32;33569;-72
2022/09/28 12:03:33;;;;;;;0.20;0.20;;;;;;;18.44;49.89;97907.47;4455388;32;34599;-72
2022/09/28 12:06:04;;;;;;;0.47;0.47;;;;;;;18.71;51.39;97913.56;4454264;32;35885;-72
2022/09/28 12:08:43;;;;;;;0.25;0.25;;;;;;;19.67;48.65;97902.59;4453928;32;35168;-72
2022/09/28 12:11:19;;;;;;;0.28;0.28;;;;;;;20.20;47.22;97905.00;4454183;32;34026;-72
2022/09/28 12:13:52;;;;;;;0.10;0.10;;;;;;;19.74;47.50;97908.31;4454257;32;34040;-72
2022/09/28 12:16:25;;;;;;;0.20;0.20;;;;;;;19.82;45.94;97894.59;4453951;32;34147;-72